createdAt,value
2023-05-20T00:01:42.014Z,101934.63
2023-05-20T00:04:10.106Z,101933.28
2023-05-20T00:06:39.626Z,101941.53
2023-05-20T00:09:07.957Z,101935.75
2023-05-20T00:11:35.957Z,101930.38
2023-05-20T00:14:04.198Z,101931.22
2023-05-20T00:16:32.460Z,101929.69
2023-05-20T00:19:00.626Z,101923.66
2023-05-20T00:21:29.623Z,101929.09
2023-05-20T00:23:59.368Z,101928.91
2023-05-20T00:26:27.695Z,101928.63
2023-05-20T00:28:58.954Z,101935.66
2023-05-20T00:31:27.291Z,101928.84
2023-05-20T00:33:55.924Z,101922.22
2023-05-20T00:36:23.988Z,101924.81
2023-05-20T00:38:52.035Z,101925.88
2023-05-20T00:41:21.833Z,101924.38
2023-05-20T00:43:50.229Z,101918.97
2023-05-20T00:46:18.416Z,101920.78
2023-05-20T00:48:46.711Z,101915.09
2023-05-20T00:51:15.825Z,101919.75
2023-05-20T00:53:45.150Z,101920.47
2023-05-20T00:56:13.938Z,101918.38
2023-05-20T00:58:44.242Z,101922.03
2023-05-20T01:01:12.747Z,101923.16
2023-05-20T01:03:42.290Z,101922.97
2023-05-20T01:06:10.732Z,101923.88
2023-05-20T01:08:39.279Z,101919.13
2023-05-20T01:11:10.858Z,101924.13
2023-05-20T01:13:45.697Z,101921.53
2023-05-20T01:16:18.379Z,101922.59
2023-05-20T01:18:50.026Z,101925.66
2023-05-20T01:21:19.831Z,101917.72
2023-05-20T01:23:51.596Z,101919.75
2023-05-20T01:26:21.963Z,101918.25
2023-05-20T01:28:51.307Z,101917.38
2023-05-20T01:31:25.714Z,101912.53
2023-05-20T01:33:58.567Z,101910.97
2023-05-20T01:36:28.354Z,101911.41
2023-05-20T01:38:59.537Z,101911.56
2023-05-20T01:41:30.509Z,101898.84
2023-05-20T01:43:59.150Z,101904.56
2023-05-20T01:46:28.210Z,101901.13
2023-05-20T01:48:56.772Z,101906.13
2023-05-20T01:51:25.354Z,101908.31
2023-05-20T01:53:53.758Z,101898.06
2023-05-20T01:56:23.780Z,101897.34
2023-05-20T01:58:51.937Z,101892.91
2023-05-20T02:01:21.141Z,101902.84
2023-05-20T02:03:49.196Z,101901.34
2023-05-20T02:06:17.837Z,101896.28
2023-05-20T02:08:46.263Z,101890.34
2023-05-20T02:11:14.750Z,101901.66
2023-05-20T02:13:44.557Z,101902.97
2023-05-20T02:16:12.763Z,101900.44
2023-05-20T02:18:40.982Z,101896.19
2023-05-20T02:21:08.987Z,101897.56
2023-05-20T02:23:37.088Z,101890.41
2023-05-20T02:26:06.999Z,101890.53
2023-05-20T02:28:40.439Z,101889.28
2023-05-20T02:31:10.013Z,101895.22
2023-05-20T02:33:38.050Z,101890.22
2023-05-20T02:36:06.421Z,101888.25
2023-05-20T02:38:36.261Z,101893.81
2023-05-20T02:41:04.752Z,101891.69
2023-05-20T02:43:32.944Z,101893.50
2023-05-20T02:46:02.529Z,101893.13
2023-05-20T02:48:32.380Z,101908.25
2023-05-20T02:51:00.599Z,101898.84
2023-05-20T02:53:28.864Z,101894.81
2023-05-20T02:55:59.771Z,101901.34
2023-05-20T02:58:29.543Z,101899.38
2023-05-20T03:00:58.705Z,101895.50
2023-05-20T03:03:27.978Z,101895.31
2023-05-20T03:05:57.639Z,101891.53
2023-05-20T03:08:25.824Z,101890.34
2023-05-20T03:10:53.768Z,101887.16
2023-05-20T03:13:22.711Z,101892.75
2023-05-20T03:15:50.791Z,101897.81
2023-05-20T03:18:19.190Z,101901.34
2023-05-20T03:20:47.828Z,101897.03
2023-05-20T03:23:17.368Z,101893.00
2023-05-20T03:25:46.620Z,101894.19
2023-05-20T03:28:14.689Z,101887.41
2023-05-20T03:30:42.985Z,101896.34
2023-05-20T03:33:12.579Z,101894.06
2023-05-20T03:35:41.054Z,101900.97
2023-05-20T03:38:09.482Z,101898.81
2023-05-20T03:40:41.419Z,101901.78
2023-05-20T03:43:09.421Z,101903.38
2023-05-20T03:45:37.881Z,101893.16
2023-05-20T03:48:08.688Z,101898.28
2023-05-20T03:50:37.316Z,101901.78
2023-05-20T03:53:05.572Z,101894.41
2023-05-20T03:55:41.176Z,101906.75
2023-05-20T03:58:10.280Z,101916.69
2023-05-20T04:00:38.559Z,101920.66
2023-05-20T04:03:06.945Z,101917.31
2023-05-20T04:05:37.457Z,101915.75
2023-05-20T04:08:13.660Z,101918.97
2023-05-20T04:10:58.477Z,101913.81
2023-05-20T04:13:26.802Z,101908.88
2023-05-20T04:15:54.668Z,101911.03
2023-05-20T04:18:22.794Z,101907.50
2023-05-20T04:20:51.256Z,101906.94
2023-05-20T04:23:19.362Z,101903.88
2023-05-20T04:25:48.791Z,101906.03
2023-05-20T04:28:18.434Z,101898.31
2023-05-20T04:30:46.448Z,101903.44
2023-05-20T04:33:14.944Z,101909.16
2023-05-20T04:35:44.600Z,101906.00
2023-05-20T04:38:12.699Z,101900.09
2023-05-20T04:40:41.091Z,101903.56
2023-05-20T04:43:09.291Z,101899.31
2023-05-20T04:45:38.805Z,101893.50
2023-05-20T04:48:07.344Z,101899.00
2023-05-20T04:50:39.267Z,101891.63
2023-05-20T04:53:08.736Z,101888.22
2023-05-20T04:55:37.513Z,101884.47
2023-05-20T04:58:05.856Z,101880.06
2023-05-20T05:00:34.575Z,101892.81
2023-05-20T05:03:05.199Z,101890.00
2023-05-20T05:05:33.966Z,101888.25
2023-05-20T05:08:02.480Z,101885.88
2023-05-20T05:10:31.276Z,101881.38
2023-05-20T05:13:00.838Z,101885.66
2023-05-20T05:15:29.910Z,101883.72
2023-05-20T05:18:03.555Z,101892.91
2023-05-20T05:20:34.435Z,101885.38
2023-05-20T05:23:02.712Z,101886.31
2023-05-20T05:25:31.068Z,101882.41
2023-05-20T05:28:01.032Z,101876.91
2023-05-20T05:30:29.405Z,101879.63
2023-05-20T05:32:57.461Z,101870.44
2023-05-20T05:35:25.615Z,101873.81
2023-05-20T05:37:55.558Z,101883.25
2023-05-20T05:40:23.915Z,101873.63
2023-05-20T05:42:52.303Z,101873.44
2023-05-20T05:45:20.532Z,101874.81
2023-05-20T05:47:48.834Z,101876.50
2023-05-20T05:50:17.461Z,101880.34
2023-05-20T05:52:45.742Z,101872.91
2023-05-20T05:55:15.706Z,101876.56
2023-05-20T05:57:43.793Z,101875.72
2023-05-20T06:00:16.006Z,101879.69
2023-05-20T06:02:47.230Z,101878.63
2023-05-20T06:05:29.818Z,101885.97
2023-05-20T06:08:00.545Z,101877.50
2023-05-20T06:10:31.001Z,101877.56
2023-05-20T06:12:59.396Z,101865.72
2023-05-20T06:15:28.379Z,101868.66
2023-05-20T06:17:57.922Z,101871.97
2023-05-20T06:20:27.432Z,101865.69
2023-05-20T06:22:55.920Z,101871.44
2023-05-20T06:25:26.982Z,101866.00
2023-05-20T06:27:56.892Z,101866.56
2023-05-20T06:30:25.966Z,101867.69
2023-05-20T06:32:55.216Z,101873.84
2023-05-20T06:35:23.592Z,101878.59
2023-05-20T06:37:51.780Z,101875.69
2023-05-20T06:40:19.907Z,101869.63
2023-05-20T06:42:48.065Z,101870.41
2023-05-20T06:45:17.759Z,101872.38
2023-05-20T06:47:56.820Z,101866.50
2023-05-20T06:50:25.077Z,101873.78
2023-05-20T06:52:53.240Z,101861.66
2023-05-20T06:55:21.622Z,101873.78
2023-05-20T06:57:49.942Z,101857.34
2023-05-20T07:00:21.575Z,101858.81
2023-05-20T07:02:49.813Z,101868.66
2023-05-20T07:05:18.231Z,101857.78
2023-05-20T07:07:46.630Z,101859.31
2023-05-20T07:10:14.755Z,101860.13
2023-05-20T07:12:43.939Z,101848.22
2023-05-20T07:15:12.639Z,101845.84
2023-05-20T07:17:42.110Z,101835.91
2023-05-20T07:20:10.775Z,101834.13
2023-05-20T07:22:39.011Z,101846.09
2023-05-20T07:25:14.289Z,101845.34
2023-05-20T07:27:42.422Z,101838.69
2023-05-20T07:30:11.177Z,101841.34
2023-05-20T07:32:42.625Z,101825.31
2023-05-20T07:35:10.857Z,101833.94
2023-05-20T07:37:38.999Z,101834.88
2023-05-20T07:40:09.145Z,101838.44
2023-05-20T07:42:39.357Z,101828.00
2023-05-20T07:45:08.540Z,101836.81
2023-05-20T07:47:36.656Z,101843.97
2023-05-20T07:50:06.737Z,101841.97
2023-05-20T07:52:51.899Z,101824.97
2023-05-20T07:55:26.422Z,101824.31
2023-05-20T07:57:54.561Z,101821.22
2023-05-20T08:00:23.977Z,101829.13
2023-05-20T08:02:52.377Z,101827.25
2023-05-20T08:05:28.520Z,101828.53
2023-05-20T08:07:56.763Z,101819.38
2023-05-20T08:10:28.098Z,101822.06
2023-05-20T08:12:56.660Z,101829.66
2023-05-20T08:15:25.319Z,101820.09
2023-05-20T08:17:53.422Z,101810.38
2023-05-20T08:20:23.174Z,101804.97
2023-05-20T08:22:53.122Z,101807.88
2023-05-20T08:25:22.132Z,101807.47
2023-05-20T08:27:50.563Z,101817.72
2023-05-20T08:30:19.066Z,101806.47
2023-05-20T08:32:50.225Z,101802.28
2023-05-20T08:35:24.012Z,101799.19
2023-05-20T08:37:55.220Z,101790.75
2023-05-20T08:40:39.072Z,101802.16
2023-05-20T08:43:09.663Z,101794.34
2023-05-20T08:45:40.442Z,101796.00
2023-05-20T08:48:13.820Z,101796.53
2023-05-20T08:50:42.266Z,101792.09
2023-05-20T08:53:12.737Z,101792.81
2023-05-20T08:55:47.889Z,101801.75
2023-05-20T08:58:19.541Z,101793.88
2023-05-20T09:00:49.020Z,101808.56
2023-05-20T09:03:18.557Z,101798.38
2023-05-20T09:05:47.159Z,101790.00
2023-05-20T09:08:17.985Z,101795.50
2023-05-20T09:10:47.156Z,101791.22
2023-05-20T09:13:17.299Z,101787.56
2023-05-20T09:15:46.966Z,101787.53
2023-05-20T09:18:18.163Z,101788.53
2023-05-20T09:20:49.384Z,101787.69
2023-05-20T09:23:21.041Z,101793.66
2023-05-20T09:25:52.194Z,101786.72
2023-05-20T09:28:24.217Z,101793.88
2023-05-20T09:30:52.414Z,101795.91
2023-05-20T09:33:22.144Z,101800.44
2023-05-20T09:35:51.700Z,101809.34
2023-05-20T09:38:22.565Z,101801.69
2023-05-20T09:40:50.837Z,101800.88
2023-05-20T09:43:19.965Z,101795.78
2023-05-20T09:45:48.698Z,101795.31
2023-05-20T09:48:17.710Z,101794.69
2023-05-20T09:50:46.711Z,101791.56
2023-05-20T09:53:16.955Z,101789.63
2023-05-20T09:55:48.904Z,101782.66
2023-05-20T09:58:20.682Z,101782.88
2023-05-20T10:00:49.143Z,101787.78
2023-05-20T10:03:18.799Z,101789.25
2023-05-20T10:05:54.599Z,101783.13
2023-05-20T10:08:54.126Z,101798.72
2023-05-20T10:11:41.886Z,101786.25
2023-05-20T10:14:30.037Z,101777.19
2023-05-20T10:17:12.141Z,101782.41
2023-05-20T10:19:41.115Z,101778.56
2023-05-20T10:22:13.181Z,101775.00
2023-05-20T10:24:42.842Z,101770.34
2023-05-20T10:27:14.788Z,101789.22
2023-05-20T10:29:44.608Z,101783.47
2023-05-20T10:32:12.706Z,101781.97
2023-05-20T10:34:48.167Z,101773.81
2023-05-20T10:37:26.440Z,101780.22
2023-05-20T10:40:04.049Z,101774.09
2023-05-20T10:42:33.414Z,101771.91
2023-05-20T10:45:01.767Z,101768.63
2023-05-20T10:47:30.024Z,101762.19
2023-05-20T10:49:59.026Z,101768.44
2023-05-20T10:52:29.390Z,101766.56
2023-05-20T10:54:59.445Z,101757.91
2023-05-20T10:57:29.950Z,101763.22
2023-05-20T11:00:02.225Z,101760.75
2023-05-20T11:02:31.505Z,101751.19
2023-05-20T11:05:01.495Z,101744.59
2023-05-20T11:07:30.521Z,101749.38
2023-05-20T11:09:59.714Z,101746.25
2023-05-20T11:12:30.081Z,101745.31
2023-05-20T11:14:59.761Z,101737.31
2023-05-20T11:17:27.893Z,101748.19
2023-05-20T11:19:56.416Z,101741.06
2023-05-20T11:22:26.080Z,101751.66
2023-05-20T11:24:55.753Z,101734.03
2023-05-20T11:27:24.101Z,101726.53
2023-05-20T11:29:53.332Z,101736.03
2023-05-20T11:32:26.950Z,101729.97
2023-05-20T11:34:55.498Z,101720.50
2023-05-20T11:37:26.654Z,101716.00
2023-05-20T11:40:07.770Z,101717.94
2023-05-20T11:42:36.492Z,101712.31
2023-05-20T11:45:05.128Z,101709.88
2023-05-20T11:47:34.943Z,101703.63
2023-05-20T11:50:04.932Z,101697.06
2023-05-20T11:52:35.284Z,101699.44
2023-05-20T11:55:04.422Z,101693.16
2023-05-20T11:57:33.957Z,101706.66
2023-05-20T12:00:07.226Z,101707.59
2023-05-20T12:02:36.853Z,101701.59
2023-05-20T12:05:05.616Z,101699.28
2023-05-20T12:07:36.701Z,101694.97
2023-05-20T12:10:05.354Z,101676.53
2023-05-20T12:12:33.871Z,101675.59
2023-05-20T12:15:02.452Z,101661.22
2023-05-20T12:17:30.742Z,101660.41
2023-05-20T12:20:00.832Z,101656.69
2023-05-20T12:22:29.362Z,101658.22
2023-05-20T12:24:57.704Z,101657.56
2023-05-20T12:27:26.274Z,101668.16
2023-05-20T12:29:54.234Z,101668.34
2023-05-20T12:32:24.387Z,101668.72
2023-05-20T12:34:54.274Z,101675.91
2023-05-20T12:37:24.207Z,101677.44
2023-05-20T12:39:52.775Z,101664.28
2023-05-20T12:42:21.012Z,101661.84
2023-05-20T12:44:49.025Z,101656.16
2023-05-20T12:47:17.251Z,101644.44
2023-05-20T12:49:45.424Z,101637.50
2023-05-20T12:52:21.952Z,101652.16
2023-05-20T12:54:52.664Z,101641.00
2023-05-20T12:57:20.708Z,101640.34
2023-05-20T12:59:48.833Z,101646.13
2023-05-20T13:02:16.907Z,101644.53
2023-05-20T13:04:45.732Z,101647.25
2023-05-20T13:07:13.964Z,101637.97
2023-05-20T13:09:41.959Z,101623.16
2023-05-20T13:12:11.957Z,101629.25
2023-05-20T13:14:39.922Z,101622.63
2023-05-20T13:17:08.014Z,101615.84
2023-05-20T13:19:36.453Z,101630.38
2023-05-20T13:22:05.988Z,101619.78
2023-05-20T13:24:35.541Z,101614.84
2023-05-20T13:27:03.571Z,101614.66
2023-05-20T13:29:33.011Z,101614.41
2023-05-20T13:32:02.073Z,101618.50
2023-05-20T13:34:31.658Z,101614.25
2023-05-20T13:36:59.756Z,101602.28
2023-05-20T13:39:27.937Z,101601.00
2023-05-20T13:41:56.422Z,101593.56
2023-05-20T13:44:24.601Z,101583.72
2023-05-20T13:46:54.260Z,101587.88
2023-05-20T13:49:23.067Z,101585.56
2023-05-20T13:51:51.119Z,101577.59
2023-05-20T13:54:19.394Z,101572.81
2023-05-20T13:56:47.453Z,101583.56
2023-05-20T13:59:15.584Z,101591.13
2023-05-20T14:01:45.757Z,101580.97
2023-05-20T14:04:15.413Z,101593.41
2023-05-20T14:06:43.457Z,101581.09
2023-05-20T14:09:11.950Z,101569.84
2023-05-20T14:11:40.554Z,101582.81
2023-05-20T14:14:08.614Z,101577.00
2023-05-20T14:16:37.395Z,101573.66
2023-05-20T14:19:06.388Z,101569.44
2023-05-20T14:21:37.925Z,101577.75
2023-05-20T14:24:06.368Z,101579.50
2023-05-20T14:26:34.679Z,101573.56
2023-05-20T14:29:03.109Z,101582.13
2023-05-20T14:31:31.190Z,101576.78
2023-05-20T14:33:59.410Z,101570.09
2023-05-20T14:36:27.457Z,101578.31
2023-05-20T14:38:56.879Z,101567.72
2023-05-20T14:41:25.039Z,101568.31
2023-05-20T14:43:53.013Z,101573.63
2023-05-20T14:46:21.725Z,101568.34
2023-05-20T14:48:49.686Z,101578.03
2023-05-20T14:51:17.922Z,101566.69
2023-05-20T14:53:47.222Z,101568.47
2023-05-20T14:56:17.110Z,101564.34
2023-05-20T14:58:47.965Z,101564.75
2023-05-20T15:01:16.336Z,101562.00
2023-05-20T15:03:44.403Z,101566.84
2023-05-20T15:06:13.784Z,101550.66
2023-05-20T15:08:42.332Z,101546.56
2023-05-20T15:11:10.364Z,101549.94
2023-05-20T15:13:40.611Z,101553.16
2023-05-20T15:16:09.012Z,101561.22
2023-05-20T15:18:37.085Z,101556.91
2023-05-20T15:21:08.309Z,101545.88
2023-05-20T15:23:36.465Z,101550.84
2023-05-20T15:26:05.289Z,101553.81
2023-05-20T15:28:34.026Z,101545.97
2023-05-20T15:31:04.017Z,101541.94
2023-05-20T15:33:32.913Z,101538.91
2023-05-20T15:36:01.166Z,101548.47
2023-05-20T15:38:29.457Z,101542.63
2023-05-20T15:40:57.446Z,101536.66
2023-05-20T15:43:25.797Z,101542.19
2023-05-20T15:45:54.285Z,101529.38
2023-05-20T15:48:23.846Z,101535.97
2023-05-20T15:50:51.940Z,101520.28
2023-05-20T15:53:20.158Z,101524.41
2023-05-20T15:55:48.481Z,101513.94
2023-05-20T15:58:16.568Z,101511.03
2023-05-20T16:00:45.392Z,101501.72
2023-05-20T16:03:13.585Z,101499.13
2023-05-20T16:05:43.396Z,101512.97
2023-05-20T16:08:11.744Z,101512.06
2023-05-20T16:10:40.032Z,101498.84
2023-05-20T16:13:08.260Z,101502.06
2023-05-20T16:15:38.418Z,101496.78
2023-05-20T16:18:09.516Z,101497.59
2023-05-20T16:20:37.832Z,101487.81
2023-05-20T16:23:08.752Z,101487.16
2023-05-20T16:25:36.905Z,101476.50
2023-05-20T16:28:05.009Z,101478.91
2023-05-20T16:30:33.389Z,101473.22
2023-05-20T16:33:01.620Z,101482.22
2023-05-20T16:35:29.849Z,101474.06
2023-05-20T16:37:59.059Z,101475.41
2023-05-20T16:40:29.168Z,101470.66
2023-05-20T16:42:57.400Z,101471.56
2023-05-20T16:45:25.582Z,101473.03
2023-05-20T16:47:54.237Z,101466.72
2023-05-20T16:50:22.407Z,101465.53
2023-05-20T16:52:50.512Z,101473.28
2023-05-20T16:55:18.623Z,101465.44
2023-05-20T16:57:48.944Z,101467.38
2023-05-20T17:00:17.172Z,101471.34
2023-05-20T17:02:46.735Z,101470.38
2023-05-20T17:05:16.781Z,101471.31
2023-05-20T17:07:46.966Z,101463.09
2023-05-20T17:10:15.332Z,101456.81
2023-05-20T17:12:43.613Z,101461.66
2023-05-20T17:15:13.251Z,101459.88
2023-05-20T17:17:41.653Z,101462.53
2023-05-20T17:20:11.084Z,101453.28
2023-05-20T17:22:39.669Z,101457.66
2023-05-20T17:25:08.369Z,101456.34
2023-05-20T17:27:36.604Z,101455.50
2023-05-20T17:30:05.464Z,101456.16
2023-05-20T17:32:35.640Z,101451.03
2023-05-20T17:35:03.997Z,101460.44
2023-05-20T17:37:32.213Z,101465.13
2023-05-20T17:40:00.629Z,101459.13
2023-05-20T17:42:28.964Z,101466.16
2023-05-20T17:44:57.773Z,101449.38
2023-05-20T17:47:26.104Z,101447.00
2023-05-20T17:49:55.749Z,101449.16
2023-05-20T17:52:24.477Z,101455.47
2023-05-20T17:54:52.608Z,101446.78
2023-05-20T17:57:21.176Z,101445.03
2023-05-20T17:59:50.799Z,101445.22
2023-05-20T18:02:19.949Z,101444.41
2023-05-20T18:04:48.448Z,101438.13
2023-05-20T18:07:18.510Z,101447.16
2023-05-20T18:09:46.883Z,101451.56
2023-05-20T18:12:15.234Z,101451.91
2023-05-20T18:14:43.559Z,101460.06
2023-05-20T18:17:12.558Z,101454.78
2023-05-20T18:19:41.374Z,101453.63
2023-05-20T18:22:09.522Z,101460.69
2023-05-20T18:24:39.212Z,101453.72
2023-05-20T18:27:07.398Z,101463.59
2023-05-20T18:29:35.664Z,101458.13
2023-05-20T18:32:03.931Z,101463.72
2023-05-20T18:34:33.403Z,101463.16
2023-05-20T18:37:01.844Z,101465.75
2023-05-20T18:39:29.834Z,101467.31
2023-05-20T18:41:59.728Z,101464.03
2023-05-20T18:44:28.027Z,101462.47
2023-05-20T18:46:57.074Z,101468.41
2023-05-20T18:49:25.161Z,101467.66
2023-05-20T18:51:53.618Z,101468.91
2023-05-20T18:54:21.599Z,101465.28
2023-05-20T18:56:49.855Z,101463.94
2023-05-20T18:59:19.300Z,101463.03
2023-05-20T19:01:47.594Z,101472.91
2023-05-20T19:04:15.849Z,101461.59
2023-05-20T19:06:43.844Z,101463.53
2023-05-20T19:09:11.961Z,101466.41
2023-05-20T19:11:40.000Z,101465.66
2023-05-20T19:14:08.031Z,101482.31
2023-05-20T19:16:37.605Z,101467.84
2023-05-20T19:19:05.884Z,101465.25
2023-05-20T19:21:34.167Z,101473.34
2023-05-20T19:24:02.311Z,101466.28
2023-05-20T19:26:30.546Z,101478.56
2023-05-20T19:28:58.588Z,101478.97
2023-05-20T19:31:26.942Z,101470.13
2023-05-20T19:33:56.673Z,101477.91
2023-05-20T19:36:24.749Z,101484.69
2023-05-20T19:38:52.719Z,101478.25
2023-05-20T19:41:21.207Z,101479.88
2023-05-20T19:43:49.170Z,101487.34
2023-05-20T19:46:17.323Z,101482.28
2023-05-20T19:48:45.365Z,101483.84
2023-05-20T19:51:14.765Z,101489.53
2023-05-20T19:53:42.687Z,101494.25
2023-05-20T19:56:10.882Z,101497.81
2023-05-20T19:58:39.041Z,101495.50
2023-05-20T20:01:07.114Z,101495.59
2023-05-20T20:03:35.058Z,101495.00
2023-05-20T20:06:04.001Z,101501.34
2023-05-20T20:08:33.448Z,101489.06
2023-05-20T20:11:01.329Z,101484.75
2023-05-20T20:13:30.537Z,101485.28
2023-05-20T20:15:58.984Z,101484.28
2023-05-20T20:18:27.250Z,101478.81
2023-05-20T20:20:55.751Z,101482.88
2023-05-20T20:23:23.801Z,101485.94
2023-05-20T20:25:53.949Z,101486.91
2023-05-20T20:28:23.153Z,101493.19
2023-05-20T20:30:52.060Z,101487.06
2023-05-20T20:33:23.549Z,101488.78
2023-05-20T20:35:54.529Z,101479.22
2023-05-20T20:38:23.227Z,101482.09
2023-05-20T20:40:54.088Z,101474.84
2023-05-20T20:43:24.379Z,101468.06
2023-05-20T20:45:53.323Z,101473.91
2023-05-20T20:48:27.149Z,101467.00
2023-05-20T20:50:57.442Z,101462.44
2023-05-20T20:53:25.868Z,101466.84
2023-05-20T20:55:53.900Z,101458.59
2023-05-20T20:58:23.332Z,101467.69
2023-05-20T21:00:53.096Z,101470.34
2023-05-20T21:03:24.241Z,101462.94
2023-05-20T21:05:53.676Z,101460.41
2023-05-20T21:08:27.669Z,101454.34
2023-05-20T21:10:59.462Z,101460.03
2023-05-20T21:13:29.191Z,101460.09
2023-05-20T21:15:58.180Z,101452.50
2023-05-20T21:18:26.808Z,101451.16
2023-05-20T21:21:00.808Z,101451.75
2023-05-20T21:23:29.153Z,101454.00
2023-05-20T21:25:57.181Z,101452.19
2023-05-20T21:28:25.032Z,101448.53
2023-05-20T21:30:54.633Z,101441.56
2023-05-20T21:33:23.105Z,101446.03
2023-05-20T21:35:51.163Z,101448.63
2023-05-20T21:38:19.411Z,101436.00
2023-05-20T21:40:47.698Z,101436.66
2023-05-20T21:43:16.095Z,101442.38
2023-05-20T21:45:45.565Z,101437.31
2023-05-20T21:48:17.515Z,101439.91
2023-05-20T21:50:46.047Z,101434.97
2023-05-20T21:53:18.602Z,101426.56
2023-05-20T21:55:48.547Z,101419.56
2023-05-20T21:58:17.703Z,101426.22
2023-05-20T22:00:46.693Z,101424.66
2023-05-20T22:03:17.908Z,101414.50
2023-05-20T22:05:50.148Z,101408.78
2023-05-20T22:08:19.565Z,101412.91
2023-05-20T22:10:50.711Z,101415.19
2023-05-20T22:13:20.765Z,101414.16
2023-05-20T22:15:48.840Z,101414.59
2023-05-20T22:18:18.385Z,101408.13
2023-05-20T22:20:48.852Z,101412.50
2023-05-20T22:23:16.987Z,101408.97
2023-05-20T22:25:44.933Z,101399.66
2023-05-20T22:28:12.821Z,101404.78
2023-05-20T22:30:40.891Z,101399.31
2023-05-20T22:33:09.110Z,101393.47
2023-05-20T22:35:38.984Z,101395.84
2023-05-20T22:38:07.031Z,101391.78
2023-05-20T22:40:35.470Z,101393.31
2023-05-20T22:43:03.620Z,101388.63
2023-05-20T22:45:31.749Z,101378.28
2023-05-20T22:48:00.445Z,101368.66
2023-05-20T22:50:30.501Z,101367.16
2023-05-20T22:53:00.131Z,101365.69
2023-05-20T22:55:28.168Z,101361.09
2023-05-20T22:57:56.250Z,101362.94
2023-05-20T23:00:24.826Z,101357.69
2023-05-20T23:02:53.011Z,101360.47
2023-05-20T23:05:21.694Z,101351.00
2023-05-20T23:07:52.559Z,101354.97
2023-05-20T23:10:22.289Z,101352.75
2023-05-20T23:12:50.325Z,101341.44
2023-05-20T23:15:18.456Z,101348.84
2023-05-20T23:17:46.638Z,101345.13
2023-05-20T23:20:19.063Z,101336.44
2023-05-20T23:22:47.443Z,101340.72
2023-05-20T23:25:15.581Z,101334.59
2023-05-20T23:27:45.321Z,101329.03
2023-05-20T23:30:13.878Z,101324.94
2023-05-20T23:32:42.600Z,101326.81
2023-05-20T23:35:12.061Z,101332.66
2023-05-20T23:37:41.060Z,101332.22
2023-05-20T23:40:10.264Z,101326.41
2023-05-20T23:42:38.221Z,101328.41
2023-05-20T23:45:08.360Z,101329.00
2023-05-20T23:47:36.510Z,101320.81
2023-05-20T23:50:05.197Z,101318.56
2023-05-20T23:52:33.339Z,101322.38
2023-05-20T23:55:01.388Z,101319.19
2023-05-20T23:57:29.375Z,101315.09
2023-05-20T23:59:57.424Z,101311.75
